Quick Links (Output Below):   Max & Min Temps   /   Climate Reports   /   Zone Forecasts
River Forecasts   /   Forestry Forecasts   /   Aviation Forecasts   /   Radars   /   Features

Terminal Aerodrome Forecast (Mountain Home)

Pick a Site:
Arkadelphia | El Dorado | Fayetteville | Fort Smith | Harrison | Highfill | Hot Springs | Jonesboro
Little Rock | Monticello | Mountain Home | Pine Bluff | Texarkana
 Forecast 

KBPK 291730Z 2918/3018 15008KT P6SM SKC
     FM292230 26005KT P6SM BKN120
     FM300200 34006KT P6SM SCT040
     FM301300 05006KT P6SM SKC
     FM301730 13006KT P6SM SKC=


 Latest METARs (Observations) 
How to Decode METARs
20Z KBPK 291953Z AUTO 15010G15KT 10SM CLR 18/06 A2998 RMK AO2 SLP150
         T01830061
         
19Z KBPK 291853Z AUTO 15007KT 10SM CLR 17/06 A3003 RMK AO2 SLP170
         T01670056
         
18Z KBPK 291753Z AUTO 15008KT 10SM CLR 15/05 A3005 RMK AO2 SLP176
         T01500050 10150 20000 58016
         
17Z KBPK 291653Z AUTO 15008KT 110V180 10SM CLR 13/04 A3007 RMK AO2
         SLP186 T01330044
         
16Z KBPK 291553Z AUTO 13008G17KT 10SM CLR 11/01 A3008 RMK AO2 SLP187
         T01060011
         
15Z KBPK 291453Z AUTO 15011G15KT 10SM CLR 07/M01 A3010 RMK AO2 SLP196
         T00721011 58013
         
14Z KBPK 291353Z AUTO 14011G16KT 10SM CLR 04/M02 A3011 RMK AO2 SLP202
         T00391022
         
13Z KBPK 291253Z AUTO 14007KT 9SM CLR 01/M03 A3014 RMK AO2 SLP211
         T00111028
         
12Z KBPK 291153Z AUTO 13007KT 9SM CLR 00/M03 A3014 RMK AO2 SLP211
         T00001028 10006 21006 56012
         
11Z KBPK 291053Z AUTO 13005KT 8SM CLR 00/M02 A3015 RMK AO2 SLP215
         T00001022
         
***** Today's Observations (Above) *****


Back to Main Page
http://www.srh.noaa.gov/lzk/qfcst.php

USA.gov is the U.S. government's official web portal to all federal, state and local government web resources and services.